Time;durP1;ratioP1;P1;durP2;ratioP2;P2;SDS_P1;SDS_P2;PMS_P1;PMS_P2;Temp;Humidity;BMP_temperature;BMP_pressure;BME280_temperature;BME280_humidity;BME280_pressure;Samples;Min_cycle;Max_cycle;Signal;HPM_P1;HPM_P2
2023/04/05 00:00:33;;;;;;;10.43;6.20;;;;;;;5.97;63.63;102357.19;5016334;28;20078;-65
2023/04/05 00:03:01;;;;;;;10.63;6.18;;;;;;;5.98;63.95;102358.84;5029953;28;20096;-65
2023/04/05 00:05:29;;;;;;;10.30;6.35;;;;;;;6.00;64.05;102350.53;5036304;28;20413;-66
2023/04/05 00:07:59;;;;;;;12.23;6.28;;;;;;;6.03;63.99;102360.94;5050304;28;20045;-65
2023/04/05 00:10:28;;;;;;;11.20;6.28;;;;;;;6.00;63.79;102366.75;5056228;28;20048;-64
2023/04/05 00:12:56;;;;;;;13.25;6.50;;;;;;;5.88;64.46;102358.34;5043871;28;20444;-65
2023/04/05 00:15:24;;;;;;;11.38;6.47;;;;;;;5.87;64.81;102356.69;5036490;28;20382;-64
2023/04/05 00:17:53;;;;;;;13.07;5.97;;;;;;;5.83;64.96;102368.91;5027366;28;20071;-65
2023/04/05 00:20:20;;;;;;;10.95;6.50;;;;;;;5.76;64.66;102370.75;5038766;28;20136;-65
2023/04/05 00:22:49;;;;;;;10.77;6.45;;;;;;;5.69;64.41;102364.44;5041037;28;20046;-66
2023/04/05 00:25:17;;;;;;;12.98;6.22;;;;;;;5.66;64.37;102362.16;5035073;28;20056;-64
2023/04/05 00:27:45;;;;;;;11.02;6.05;;;;;;;5.60;65.01;102360.22;5040282;28;20080;-65
2023/04/05 00:30:19;;;;;;;11.80;5.85;;;;;;;5.58;65.67;102356.88;5054738;28;20065;-65
2023/04/05 00:32:48;;;;;;;12.27;6.03;;;;;;;5.62;64.75;102353.59;5042488;28;20045;-64
2023/04/05 00:35:16;;;;;;;13.43;6.10;;;;;;;5.63;62.03;102354.41;5034801;28;20103;-66
2023/04/05 00:37:44;;;;;;;11.95;6.32;;;;;;;5.62;61.63;102353.59;5035560;28;20045;-64
2023/04/05 00:40:12;;;;;;;12.43;6.03;;;;;;;5.58;60.76;102346.06;5055131;28;20048;-65
2023/04/05 00:42:40;;;;;;;13.05;6.05;;;;;;;5.54;60.92;102351.03;5038827;28;20050;-66
2023/04/05 00:45:08;;;;;;;11.07;6.40;;;;;;;5.54;61.10;102349.16;5036211;28;20046;-66
2023/04/05 00:47:36;;;;;;;10.18;6.05;;;;;;;5.53;61.52;102350.22;5018669;28;20062;-63
2023/04/05 00:50:06;;;;;;;13.25;6.47;;;;;;;5.55;61.26;102342.72;5008590;28;20448;-64
2023/04/05 00:52:36;;;;;;;9.63;5.75;;;;;;;5.60;61.19;102341.28;5025844;28;20041;-65
2023/04/05 00:55:06;;;;;;;10.15;5.93;;;;;;;5.61;59.76;102345.69;5035129;28;20147;-64
2023/04/05 00:57:37;;;;;;;11.93;5.95;;;;;;;5.55;58.76;102344.59;5049043;28;20052;-64
2023/04/05 01:00:08;;;;;;;11.75;6.50;;;;;;;5.50;59.19;102339.75;5056066;28;20048;-64
2023/04/05 01:02:44;;;;;;;10.05;5.40;;;;;;;5.48;59.36;102338.28;5036618;28;20556;-64
2023/04/05 01:05:39;;;;;;;11.38;5.90;;;;;;;5.46;59.24;102337.66;5018801;28;20049;-64
2023/04/05 01:08:22;;;;;;;10.30;5.90;;;;;;;5.49;60.08;102334.56;5042927;28;20102;-65
2023/04/05 01:10:58;;;;;;;10.30;6.03;;;;;;;5.48;59.75;102330.19;5054203;28;20076;-64
2023/04/05 01:13:25;;;;;;;10.65;5.97;;;;;;;5.48;59.79;102335.59;5033582;28;20132;-65
2023/04/05 01:15:53;;;;;;;10.50;5.32;;;;;;;5.49;60.06;102332.69;5034254;28;20072;-65
2023/04/05 01:18:23;;;;;;;10.68;5.80;;;;;;;5.53;60.12;102331.28;5035801;28;20112;-65
2023/04/05 01:21:22;;;;;;;12.20;5.70;;;;;;;5.55;58.83;102337.31;5060605;28;20136;-65
2023/04/05 01:24:17;;;;;;;10.88;5.78;;;;;;;5.48;58.23;102330.19;5033938;28;20552;-66
2023/04/05 01:26:56;;;;;;;10.55;5.82;;;;;;;5.45;58.51;102326.00;5034010;28;20060;-64
2023/04/05 01:29:36;;;;;;;11.00;5.70;;;;;;;5.48;59.36;102325.63;5049785;28;20041;-63
2023/04/05 01:32:31;;;;;;;12.93;6.30;;;;;;;5.50;59.34;102320.84;5032920;28;20378;-65
2023/04/05 01:35:05;;;;;;;9.57;5.65;;;;;;;5.47;58.93;102323.94;5040527;28;20053;-64
2023/04/05 01:37:34;;;;;;;10.88;5.95;;;;;;;5.40;59.04;102323.06;5054363;28;20076;-65
2023/04/05 01:40:05;;;;;;;9.90;6.00;;;;;;;5.33;60.44;102323.00;5037057;28;20494;-65
2023/04/05 01:42:33;;;;;;;11.20;6.10;;;;;;;5.30;61.11;102320.72;5026216;28;20041;-66
2023/04/05 01:45:00;;;;;;;9.77;5.90;;;;;;;5.30;61.50;102317.16;5019692;28;20041;-66
2023/04/05 01:47:28;;;;;;;13.68;6.32;;;;;;;5.31;61.06;102313.44;5052708;28;20163;-64
2023/04/05 01:49:56;;;;;;;12.00;5.63;;;;;;;5.26;60.56;102305.06;5034231;28;20045;-64
2023/04/05 01:52:25;;;;;;;10.48;6.07;;;;;;;5.23;61.52;102306.31;5020942;28;20042;-66
2023/04/05 01:54:53;;;;;;;12.85;6.13;;;;;;;5.18;62.04;102308.75;5043063;28;20041;-66
2023/04/05 01:57:21;;;;;;;12.63;6.10;;;;;;;5.12;62.34;102307.69;5039426;28;20470;-65
2023/04/05 01:59:48;;;;;;;11.35;6.20;;;;;;;5.06;63.01;102311.16;5034320;28;20050;-67
2023/04/05 02:02:16;;;;;;;10.57;5.97;;;;;;;5.03;63.43;102310.72;5034685;28;20386;-66
2023/04/05 02:04:44;;;;;;;11.48;5.97;;;;;;;5.02;63.67;102309.84;5039388;28;20049;-66
2023/04/05 02:07:11;;;;;;;12.20;6.20;;;;;;;5.03;63.68;102308.84;5040070;28;20124;-64
2023/04/05 02:09:41;;;;;;;10.25;6.20;;;;;;;5.01;62.56;102312.78;5033629;28;20055;-64
2023/04/05 02:12:08;;;;;;;12.00;6.00;;;;;;;4.91;62.01;102307.69;5049429;28;20116;-64
2023/04/05 02:14:37;;;;;;;11.10;6.25;;;;;;;4.83;63.24;102305.13;5034422;28;20459;-65
2023/04/05 02:17:05;;;;;;;11.73;6.32;;;;;;;4.83;63.07;102302.41;5032246;28;20064;-65
2023/04/05 02:19:39;;;;;;;10.10;5.82;;;;;;;4.83;62.76;102303.25;5049390;28;20059;-66
2023/04/05 02:22:10;;;;;;;10.57;6.40;;;;;;;4.84;63.44;102298.72;5032632;28;20501;-65
2023/04/05 02:24:38;;;;;;;11.07;6.25;;;;;;;4.86;63.72;102293.94;5034567;28;20505;-66
2023/04/05 02:27:06;;;;;;;9.65;5.95;;;;;;;4.84;63.97;102290.59;5032147;28;20045;-65
2023/04/05 02:29:34;;;;;;;12.20;6.03;;;;;;;4.80;64.52;102292.84;5032392;28;20046;-65
2023/04/05 02:32:01;;;;;;;10.43;6.22;;;;;;;4.78;64.48;102294.88;5033421;28;20081;-65
2023/04/05 02:34:30;;;;;;;11.45;5.95;;;;;;;4.79;64.87;102287.66;5052206;28;20053;-66
2023/04/05 02:36:58;;;;;;;10.48;6.20;;;;;;;4.82;65.05;102292.66;5036110;28;20053;-64
2023/04/05 02:39:27;;;;;;;11.07;5.82;;;;;;;4.86;65.17;102293.94;5017703;28;20409;-65
2023/04/05 02:41:55;;;;;;;11.20;5.88;;;;;;;4.87;65.11;102290.22;5032173;28;20045;-65
2023/04/05 02:44:23;;;;;;;11.90;6.20;;;;;;;4.89;64.93;102288.16;5048931;28;20053;-64
2023/04/05 02:46:53;;;;;;;10.15;6.00;;;;;;;4.89;64.07;102288.97;5049046;28;20053;-65
2023/04/05 02:49:26;;;;;;;9.65;5.97;;;;;;;4.90;63.71;102287.94;5017496;28;20552;-66
2023/04/05 02:51:56;;;;;;;10.80;6.03;;;;;;;4.88;63.41;102287.31;5016434;28;20076;-64
2023/04/05 02:54:24;;;;;;;9.88;5.65;;;;;;;4.86;63.36;102280.44;5016021;28;20512;-65
2023/04/05 02:57:01;;;;;;;11.20;6.43;;;;;;;4.84;63.75;102280.63;5065749;28;20446;-65
2023/04/05 02:59:33;;;;;;;12.32;6.07;;;;;;;4.86;63.51;102277.75;5056744;28;20079;-65
2023/04/05 03:02:02;;;;;;;10.55;6.20;;;;;;;4.83;63.25;102272.72;5052120;28;20057;-65
2023/04/05 03:04:33;;;;;;;10.23;6.38;;;;;;;4.75;63.48;102273.69;5052222;28;20060;-64
2023/04/05 03:07:03;;;;;;;11.48;6.50;;;;;;;4.62;64.38;102279.81;5052327;28;20080;-64
2023/04/05 03:09:37;;;;;;;9.70;6.03;;;;;;;4.57;64.68;102268.75;5040215;28;20124;-65
2023/04/05 03:12:08;;;;;;;13.13;6.57;;;;;;;4.60;65.23;102271.06;5039227;28;20042;-65
2023/04/05 03:14:40;;;;;;;10.82;5.95;;;;;;;4.61;64.90;102264.63;5000093;28;20049;-65
2023/04/05 03:17:11;;;;;;;10.68;5.97;;;;;;;4.61;65.12;102259.22;5032610;28;20409;-66
2023/04/05 03:19:44;;;;;;;11.75;6.50;;;;;;;4.61;65.40;102258.38;5032558;28;20084;-65
2023/04/05 03:22:26;;;;;;;10.50;6.35;;;;;;;4.58;65.21;102265.00;5028963;28;20104;-65
2023/04/05 03:24:56;;;;;;;11.52;6.07;;;;;;;4.57;65.63;102262.50;5017709;28;20120;-65
2023/04/05 03:27:25;;;;;;;12.48;6.10;;;;;;;4.54;65.21;102254.78;5066260;28;20052;-64
2023/04/05 03:30:02;;;;;;;13.20;6.93;;;;;;;4.52;65.29;102259.53;5032204;28;20049;-65
2023/04/05 03:32:32;;;;;;;12.02;6.57;;;;;;;4.44;65.46;102255.09;5032548;28;20068;-65
2023/04/05 03:35:09;;;;;;;11.18;6.70;;;;;;;4.35;66.11;102256.25;5048918;28;20401;-64
2023/04/05 03:37:38;;;;;;;10.35;6.70;;;;;;;4.32;66.73;102259.34;5032120;28;20498;-64
2023/04/05 03:40:09;;;;;;;11.20;5.95;;;;;;;4.34;66.81;102257.28;5032067;28;20068;-65
2023/04/05 03:42:37;;;;;;;10.32;6.30;;;;;;;4.38;66.91;102256.72;5047301;28;20493;-64
2023/04/05 03:45:05;;;;;;;12.65;6.00;;;;;;;4.43;66.47;102250.75;5035773;28;20041;-64
2023/04/05 03:47:33;;;;;;;11.32;6.30;;;;;;;4.48;66.43;102249.13;5049045;28;20049;-65
2023/04/05 03:50:04;;;;;;;12.75;6.55;;;;;;;4.53;66.46;102251.25;5032541;28;20052;-65
2023/04/05 03:52:32;;;;;;;11.55;5.93;;;;;;;4.55;65.59;102257.31;5042781;28;20059;-65
2023/04/05 03:55:00;;;;;;;10.93;6.03;;;;;;;4.50;65.57;102251.66;5039234;28;20048;-64
2023/04/05 03:57:31;;;;;;;10.60;6.40;;;;;;;4.48;65.49;102245.59;5032298;28;20081;-65
2023/04/05 04:00:13;;;;;;;11.13;6.20;;;;;;;4.46;65.56;102242.25;5035889;28;20057;-64
2023/04/05 04:02:44;;;;;;;11.73;6.20;;;;;;;4.46;65.82;102235.00;5040630;28;20156;-66
2023/04/05 04:05:17;;;;;;;11.82;6.47;;;;;;;4.44;66.48;102238.91;5053531;28;20049;-65
2023/04/05 04:07:48;;;;;;;11.82;6.03;;;;;;;4.42;66.44;102235.56;5047511;28;20045;-66
2023/04/05 04:10:17;;;;;;;12.85;6.60;;;;;;;4.39;66.61;102241.34;5002681;28;20504;-65
2023/04/05 04:12:49;;;;;;;9.73;5.68;;;;;;;4.38;66.89;102242.41;5050409;28;20071;-66
2023/04/05 04:15:18;;;;;;;14.10;6.55;;;;;;;4.37;66.81;102236.13;5013835;28;20076;-66
2023/04/05 04:18:18;;;;;;;11.98;6.25;;;;;;;4.31;66.43;102241.50;5023151;28;20053;-65
2023/04/05 04:21:06;;;;;;;12.63;6.50;;;;;;;4.26;66.43;102234.78;5031871;28;20478;-65
2023/04/05 04:23:56;;;;;;;12.52;6.15;;;;;;;4.21;66.57;102237.25;5009230;28;20056;-65
2023/04/05 04:27:02;;;;;;;15.98;6.72;;;;;;;4.21;66.79;102237.25;5049871;28;20037;-66
2023/04/05 04:29:45;;;;;;;13.43;6.95;;;;;;;4.20;66.37;102232.84;5034344;28;20464;-64
2023/04/05 04:32:54;;;;;;;13.63;6.93;;;;;;;4.20;67.30;102230.16;5034346;28;20462;-64
2023/04/05 04:35:45;;;;;;;12.10;7.28;;;;;;;4.23;67.46;102237.88;5041181;28;20072;-65
2023/04/05 04:38:33;;;;;;;10.65;6.72;;;;;;;4.24;67.10;102239.53;5036235;28;20195;-66
2023/04/05 04:41:27;;;;;;;13.02;6.10;;;;;;;4.20;66.65;102235.53;5033187;28;20060;-64
2023/04/05 04:44:14;;;;;;;13.02;6.50;;;;;;;4.19;66.67;102239.28;5037039;28;20518;-65
2023/04/05 04:47:20;;;;;;;13.20;6.28;;;;;;;4.16;66.39;102239.66;5021773;28;20048;-64
2023/04/05 04:50:06;;;;;;;17.65;6.75;;;;;;;4.12;66.70;102232.97;5021191;28;20053;-65
2023/04/05 04:52:33;;;;;;;14.65;7.13;;;;;;;4.05;66.86;102240.16;5010910;28;20061;-66
2023/04/05 04:55:01;;;;;;;11.63;6.78;;;;;;;3.99;67.50;102235.50;5037990;28;20068;-65
2023/04/05 04:57:29;;;;;;;13.38;7.32;;;;;;;4.03;68.22;102237.63;5042547;28;20053;-65
2023/04/05 04:59:57;;;;;;;12.70;6.70;;;;;;;4.09;68.15;102238.75;5035544;28;20048;-65
2023/04/05 05:02:26;;;;;;;17.33;7.28;;;;;;;4.09;67.38;102233.38;5033819;28;20050;-65
2023/04/05 05:04:57;;;;;;;13.85;7.05;;;;;;;4.06;67.50;102236.41;5033220;28;20059;-66
2023/04/05 05:07:24;;;;;;;12.25;6.65;;;;;;;4.00;67.31;102234.50;5047422;28;20493;-66
2023/04/05 05:09:53;;;;;;;10.43;6.18;;;;;;;3.93;68.38;102234.41;5042698;28;20128;-66
2023/04/05 05:12:21;;;;;;;12.32;6.80;;;;;;;3.92;68.25;102238.16;5034172;28;20052;-66
2023/04/05 05:14:48;;;;;;;12.77;7.55;;;;;;;3.85;68.06;102237.22;5033911;28;20049;-66
2023/04/05 05:17:16;;;;;;;12.05;7.28;;;;;;;3.78;68.75;102236.31;5033668;28;20041;-65
2023/04/05 05:19:45;;;;;;;13.77;7.18;;;;;;;3.73;69.19;102234.19;5035116;28;20474;-66
2023/04/05 05:22:12;;;;;;;15.35;6.75;;;;;;;3.74;70.17;102237.69;5034160;28;20084;-65
2023/04/05 05:24:41;;;;;;;10.82;6.30;;;;;;;3.75;69.61;102242.06;5034570;28;20045;-65
2023/04/05 05:27:09;;;;;;;11.52;6.13;;;;;;;3.74;70.10;102238.53;5050265;28;20141;-64
2023/04/05 05:29:36;;;;;;;12.10;7.00;;;;;;;3.76;69.87;102239.19;5034900;28;20156;-66
2023/04/05 05:32:04;;;;;;;10.88;6.82;;;;;;;3.75;70.31;102232.13;5035017;28;20049;-65
2023/04/05 05:34:32;;;;;;;12.57;6.78;;;;;;;3.73;70.33;102239.56;5040267;28;20052;-66
2023/04/05 05:37:00;;;;;;;14.10;7.32;;;;;;;3.73;69.95;102227.94;5036951;28;20071;-64
2023/04/05 05:39:28;;;;;;;13.20;7.38;;;;;;;3.69;69.87;102230.19;5051418;28;20081;-64
2023/04/05 05:41:56;;;;;;;15.10;7.28;;;;;;;3.59;70.73;102226.94;5034914;28;20180;-64
2023/04/05 05:44:24;;;;;;;12.88;7.85;;;;;;;3.55;70.37;102226.47;5033340;28;20045;-63
2023/04/05 05:46:51;;;;;;;14.60;8.40;;;;;;;3.48;71.22;102222.84;5034187;28;20544;-64
2023/04/05 05:49:19;;;;;;;15.77;7.85;;;;;;;3.42;71.18;102221.75;5048356;28;20072;-65
2023/04/05 05:51:47;;;;;;;11.77;7.18;;;;;;;3.44;71.95;102223.41;5054935;28;20131;-64
2023/04/05 05:54:15;;;;;;;13.68;6.88;;;;;;;3.40;71.53;102228.34;5054424;28;20079;-65
2023/04/05 05:56:43;;;;;;;12.02;6.95;;;;;;;3.33;71.96;102222.84;5043884;28;20119;-65
2023/04/05 05:59:11;;;;;;;16.52;7.45;;;;;;;3.28;72.33;102225.25;5034602;28;20044;-67
2023/04/05 06:01:41;;;;;;;12.90;7.07;;;;;;;3.24;72.43;102229.34;5062864;28;20055;-64
2023/04/05 06:04:09;;;;;;;16.02;7.40;;;;;;;3.26;72.95;102231.84;5023864;28;20097;-64
2023/04/05 06:06:37;;;;;;;14.73;7.65;;;;;;;3.30;73.46;102228.59;5014503;28;20396;-66
2023/04/05 06:09:05;;;;;;;15.57;7.38;;;;;;;3.37;73.39;102224.16;4337360;28;10000642;-67
2023/04/05 06:11:33;;;;;;;16.00;6.90;;;;;;;3.39;72.84;102232.03;5025202;28;20049;-66
2023/04/05 06:14:05;;;;;;;13.02;7.28;;;;;;;3.40;73.69;102234.56;5052459;28;20420;-65
2023/04/05 06:16:34;;;;;;;13.88;7.30;;;;;;;3.47;73.50;102239.22;5047993;28;20125;-67
2023/04/05 06:19:02;;;;;;;16.40;8.13;;;;;;;3.50;73.14;102236.13;5030022;28;20107;-65
2023/04/05 06:21:30;;;;;;;12.23;7.20;;;;;;;3.56;73.18;102238.06;5051220;28;20044;-65
2023/04/05 06:23:57;;;;;;;11.55;7.20;;;;;;;3.60;72.78;102237.50;5049248;28;20041;-65
2023/04/05 06:26:28;;;;;;;12.82;7.45;;;;;;;3.65;72.62;102236.13;5050901;28;20049;-64
2023/04/05 06:28:57;;;;;;;12.68;6.97;;;;;;;3.70;73.12;102239.91;5031865;28;20087;-67
2023/04/05 06:31:32;;;;;;;11.82;7.10;;;;;;;3.80;71.85;102235.09;5043674;28;20559;-65
2023/04/05 06:34:00;;;;;;;17.70;7.57;;;;;;;3.91;71.39;102241.03;5045642;28;20404;-64
2023/04/05 06:36:32;;;;;;;13.35;7.40;;;;;;;4.00;71.57;102237.19;5028891;28;20052;-66
2023/04/05 06:39:01;;;;;;;13.52;7.40;;;;;;;4.03;70.49;102234.13;5030506;28;20053;-65
2023/04/05 06:41:28;;;;;;;12.88;7.03;;;;;;;4.06;70.31;102241.81;5040653;28;20053;-66
2023/04/05 06:43:56;;;;;;;13.35;8.02;;;;;;;4.10;70.52;102237.72;5049390;28;20045;-64
2023/04/05 06:46:25;;;;;;;15.32;8.43;;;;;;;4.05;70.65;102242.84;5046788;28;20083;-64
2023/04/05 06:48:53;;;;;;;13.20;8.07;;;;;;;3.99;70.85;102241.75;5028544;28;20049;-65
2023/04/05 06:51:20;;;;;;;14.55;7.90;;;;;;;4.00;71.50;102235.34;5033820;28;20207;-64
2023/04/05 06:53:48;;;;;;;14.73;8.48;;;;;;;3.96;71.67;102242.13;5049045;28;20051;-65
2023/04/05 06:56:16;;;;;;;21.48;9.07;;;;;;;3.94;71.07;102244.16;5029099;28;20092;-63
2023/04/05 06:58:43;;;;;;;16.10;8.75;;;;;;;4.00;71.69;102238.03;5028867;28;20386;-64
2023/04/05 07:01:11;;;;;;;16.55;8.82;;;;;;;4.02;70.97;102245.94;5027759;28;20438;-65
2023/04/05 07:03:39;;;;;;;17.73;9.27;;;;;;;4.03;71.75;102242.19;5035047;28;20069;-65
2023/04/05 07:06:08;;;;;;;17.55;8.85;;;;;;;4.13;71.66;102250.81;5030222;28;20046;-65
2023/04/05 07:08:36;;;;;;;15.23;8.80;;;;;;;4.22;70.62;102247.00;5032118;28;20485;-65
2023/04/05 07:11:04;;;;;;;16.80;8.38;;;;;;;4.29;70.31;102238.97;5032043;28;20049;-65
2023/04/05 07:13:32;;;;;;;16.05;8.20;;;;;;;4.33;69.60;102244.81;5047356;28;20110;-65
2023/04/05 07:16:01;;;;;;;14.23;8.18;;;;;;;4.32;69.50;102248.53;5069035;28;20072;-66
2023/04/05 07:18:29;;;;;;;19.92;8.48;;;;;;;4.31;69.64;102242.31;5018367;28;20049;-64
2023/04/05 07:21:02;;;;;;;13.40;8.00;;;;;;;4.31;70.05;102242.31;5065159;28;20052;-65
2023/04/05 07:23:30;;;;;;;16.40;8.55;;;;;;;4.31;70.78;102246.88;5017020;28;20049;-66
2023/04/05 07:26:06;;;;;;;16.15;8.90;;;;;;;4.34;70.30;102246.50;5045790;28;20457;-65
2023/04/05 07:28:34;;;;;;;16.90;8.75;;;;;;;4.37;70.77;102249.63;5046100;28;20370;-66
2023/04/05 07:31:04;;;;;;;15.82;8.68;;;;;;;4.41;70.38;102247.41;5049072;28;20097;-65
2023/04/05 07:33:32;;;;;;;20.27;8.90;;;;;;;4.46;70.39;102245.78;5055263;28;20541;-65
2023/04/05 07:36:02;;;;;;;17.35;8.35;;;;;;;4.51;69.79;102241.69;5059300;28;20052;-65
2023/04/05 07:38:30;;;;;;;14.25;8.15;;;;;;;4.55;69.96;102248.38;5038570;28;20115;-64
2023/04/05 07:40:57;;;;;;;13.55;8.18;;;;;;;4.55;69.77;102243.81;5035719;28;20386;-64
2023/04/05 07:43:25;;;;;;;14.77;8.07;;;;;;;4.57;69.46;102244.47;5035879;28;20064;-63
2023/04/05 07:46:01;;;;;;;15.25;8.18;;;;;;;4.59;69.98;102244.25;5035400;28;20060;-65
2023/04/05 07:48:29;;;;;;;15.23;8.32;;;;;;;4.63;69.79;102249.06;5035126;28;20116;-65
2023/04/05 07:51:03;;;;;;;18.10;9.32;;;;;;;4.67;69.40;102250.34;5036745;28;20063;-65
2023/04/05 07:53:30;;;;;;;13.23;8.00;;;;;;;4.74;69.76;102249.56;5036451;28;20074;-65
2023/04/05 07:56:02;;;;;;;14.52;8.10;;;;;;;4.78;69.42;102235.50;5037600;28;20103;-65
2023/04/05 07:58:31;;;;;;;15.63;8.20;;;;;;;4.82;68.03;102239.47;5036146;28;20125;-65
2023/04/05 08:01:03;;;;;;;13.23;7.47;;;;;;;4.90;68.03;102238.50;5036535;28;20079;-65
2023/04/05 08:03:31;;;;;;;13.27;7.45;;;;;;;4.94;67.74;102237.09;5034513;28;20092;-65
2023/04/05 08:06:08;;;;;;;13.88;8.02;;;;;;;4.98;67.35;102240.22;5035133;28;20124;-65
2023/04/05 08:08:36;;;;;;;16.88;7.85;;;;;;;5.02;67.03;102245.03;5018765;28;20103;-64
2023/04/05 08:11:07;;;;;;;12.60;7.90;;;;;;;5.03;66.48;102230.50;5035527;28;20108;-65
2023/04/05 08:13:35;;;;;;;15.48;7.55;;;;;;;5.11;67.54;102233.06;5036441;28;20085;-65
2023/04/05 08:16:03;;;;;;;14.88;7.90;;;;;;;5.16;67.19;102231.63;5018724;28;20053;-65
2023/04/05 08:18:31;;;;;;;13.13;7.75;;;;;;;5.19;66.28;102231.22;5067520;28;20077;-65
2023/04/05 08:20:58;;;;;;;16.05;7.90;;;;;;;5.21;65.86;102237.28;5035989;28;20096;-64
2023/04/05 08:23:26;;;;;;;14.45;7.38;;;;;;;5.24;65.93;102239.56;5035556;28;20041;-65
2023/04/05 08:25:54;;;;;;;13.02;7.00;;;;;;;5.27;67.31;102233.81;5018329;28;20059;-66
2023/04/05 08:28:22;;;;;;;16.70;7.05;;;;;;;5.32;67.38;102231.34;5017708;28;20041;-65
2023/04/05 08:30:56;;;;;;;12.68;6.47;;;;;;;5.36;66.55;102235.28;5034643;28;20041;-66
2023/04/05 08:33:25;;;;;;;13.02;6.50;;;;;;;5.39;66.39;102240.31;5034006;28;20052;-64
2023/04/05 08:35:52;;;;;;;13.70;6.78;;;;;;;5.42;66.52;102233.69;5034551;28;20432;-65
2023/04/05 08:38:20;;;;;;;13.35;6.47;;;;;;;5.45;64.57;102241.38;5034372;28;20049;-65
2023/04/05 08:40:48;;;;;;;15.55;6.57;;;;;;;5.51;60.25;102244.13;5033408;28;20519;-66
2023/04/05 08:43:51;;;;;;;16.13;6.38;;;;;;;5.61;60.80;102237.53;5035790;28;20052;-65
2023/04/05 08:46:21;;;;;;;13.30;6.13;;;;;;;5.67;56.86;102237.53;5033602;28;20049;-66
2023/04/05 08:48:49;;;;;;;12.05;6.70;;;;;;;5.71;54.10;102232.59;5050050;28;20041;-65
2023/04/05 08:51:21;;;;;;;11.25;6.32;;;;;;;5.74;53.40;102238.41;5034471;28;20053;-65
2023/04/05 08:53:49;;;;;;;11.52;6.60;;;;;;;5.76;56.80;102224.69;5033354;28;20072;-66
2023/04/05 08:56:26;;;;;;;12.68;6.65;;;;;;;5.81;55.96;102233.03;5054606;28;20064;-67
2023/04/05 08:59:07;;;;;;;11.65;6.38;;;;;;;5.84;56.34;102224.50;5053811;28;20049;-66
2023/04/05 09:01:47;;;;;;;14.70;6.50;;;;;;;5.88;57.43;102228.50;5013805;28;20042;-65
2023/04/05 09:04:20;;;;;;;14.45;6.55;;;;;;;5.95;56.98;102234.78;5030199;28;20054;-65
2023/04/05 09:06:50;;;;;;;10.75;6.07;;;;;;;5.98;55.68;102228.97;5013970;28;20108;-65
2023/04/05 09:09:19;;;;;;;12.00;6.28;;;;;;;6.00;55.55;102231.47;5014558;28;20080;-66
2023/04/05 09:11:48;;;;;;;12.73;6.30;;;;;;;6.01;54.06;102226.91;5049911;28;20065;-66
2023/04/05 09:14:16;;;;;;;11.93;6.45;;;;;;;6.06;53.17;102224.41;5035290;28;20496;-66
2023/04/05 09:16:44;;;;;;;13.55;6.45;;;;;;;6.09;52.16;102224.84;5017714;28;20103;-66
2023/04/05 09:19:12;;;;;;;9.98;6.38;;;;;;;6.11;52.52;102222.78;5034180;28;20041;-65
2023/04/05 09:22:03;;;;;;;14.20;6.30;;;;;;;6.16;52.58;102224.88;5033320;28;20417;-65
2023/04/05 09:24:40;;;;;;;14.20;6.55;;;;;;;6.21;53.94;102221.56;4986012;28;20045;-66
2023/04/05 09:27:12;;;;;;;13.00;6.22;;;;;;;6.23;53.83;102214.91;5001351;28;20459;-66
2023/04/05 09:29:42;;;;;;;10.13;6.38;;;;;;;6.27;54.26;102215.31;5018207;28;20048;-66
2023/04/05 09:32:11;;;;;;;11.32;6.20;;;;;;;6.31;54.58;102220.13;5022501;28;20049;-65
2023/04/05 09:34:39;;;;;;;10.93;6.35;;;;;;;6.38;53.34;102209.31;5047301;28;20144;-66
2023/04/05 09:37:15;;;;;;;13.55;6.97;;;;;;;6.43;53.77;102209.53;5035890;28;20155;-65
2023/04/05 09:39:45;;;;;;;13.23;6.82;;;;;;;6.47;53.92;102209.94;5018533;28;20431;-65
2023/04/05 09:42:15;;;;;;;15.50;6.18;;;;;;;6.59;53.20;102213.69;5043819;28;20496;-66
2023/04/05 09:45:06;;;;;;;12.07;6.72;;;;;;;6.56;50.87;102211.41;5040600;28;20095;-66
2023/04/05 09:47:40;;;;;;;10.82;6.70;;;;;;;6.55;51.75;102212.47;5019921;28;20117;-65
2023/04/05 09:50:14;;;;;;;13.32;6.38;;;;;;;6.55;51.78;102209.75;5033918;28;20049;-65
2023/04/05 09:52:43;;;;;;;12.93;6.82;;;;;;;6.61;51.57;102211.63;5052145;28;20469;-66
2023/04/05 09:55:11;;;;;;;12.80;6.55;;;;;;;6.62;51.86;102210.59;5036997;28;20103;-65
2023/04/05 09:57:41;;;;;;;14.52;6.82;;;;;;;6.63;51.13;102204.13;5053432;28;20079;-66
2023/04/05 10:00:20;;;;;;;12.02;7.32;;;;;;;6.61;50.81;102203.50;5029639;28;20068;-66
2023/04/05 10:02:52;;;;;;;13.82;6.68;;;;;;;6.57;50.79;102202.25;5023030;28;20050;-66
2023/04/05 10:05:27;;;;;;;13.00;6.72;;;;;;;6.55;51.23;102198.91;5002738;28;20052;-65
2023/04/05 10:07:55;;;;;;;14.25;6.95;;;;;;;6.58;51.20;102196.63;5017470;28;20124;-65
2023/04/05 10:10:24;;;;;;;13.25;7.10;;;;;;;6.68;49.62;102195.38;5013202;28;20064;-66
2023/04/05 10:12:53;;;;;;;14.10;6.57;;;;;;;6.74;48.97;102200.81;5024599;28;20080;-66
2023/04/05 10:15:20;;;;;;;10.38;6.47;;;;;;;6.77;48.80;102194.13;5021594;28;20054;-65
2023/04/05 10:17:54;;;;;;;12.57;6.03;;;;;;;6.79;50.16;102179.34;5033409;28;20104;-66
2023/04/05 10:20:23;;;;;;;11.75;6.38;;;;;;;6.80;49.38;102182.88;5035954;28;20052;-65
2023/04/05 10:22:50;;;;;;;11.45;6.35;;;;;;;6.86;49.94;102182.03;5054219;28;20071;-66
2023/04/05 10:25:46;;;;;;;12.70;6.28;;;;;;;6.95;49.32;102175.38;5053836;28;20095;-66
2023/04/05 10:28:32;;;;;;;14.37;6.80;;;;;;;6.97;48.71;102175.13;5049375;28;20056;-65
2023/04/05 10:31:37;;;;;;;12.02;5.95;;;;;;;7.00;49.32;102177.44;5029576;28;20107;-66
2023/04/05 10:34:07;;;;;;;15.35;6.93;;;;;;;7.08;48.42;102170.97;5005777;28;20049;-67
2023/04/05 10:36:47;;;;;;;13.40;6.63;;;;;;;7.14;47.15;102168.22;5038387;28;20048;-66
2023/04/05 10:39:25;;;;;;;8.90;5.35;;;;;;;7.17;47.62;102165.13;5032748;28;20042;-66
2023/04/05 10:42:06;;;;;;;9.63;5.60;;;;;;;7.19;48.21;102160.31;5048625;28;20096;-66
2023/04/05 10:44:36;;;;;;;12.30;6.10;;;;;;;7.16;46.87;102163.44;5064336;28;20397;-66
2023/04/05 10:47:04;;;;;;;14.73;6.57;;;;;;;7.16;47.97;102160.72;5069892;28;20473;-67
2023/04/05 10:49:43;;;;;;;12.60;6.82;;;;;;;7.21;47.83;102163.63;5042760;28;20457;-67
2023/04/05 10:52:11;;;;;;;11.20;6.43;;;;;;;7.27;47.33;102163.84;5034511;28;20131;-67
2023/04/05 10:54:40;;;;;;;11.57;6.50;;;;;;;7.28;46.24;102160.06;5054497;28;20095;-65
2023/04/05 10:57:09;;;;;;;10.23;5.97;;;;;;;7.31;47.43;102149.66;5037423;28;20107;-66
2023/04/05 10:59:45;;;;;;;13.13;6.03;;;;;;;7.36;47.63;102148.97;5032273;28;20514;-66
2023/04/05 11:02:14;;;;;;;10.25;5.68;;;;;;;7.41;48.99;102141.06;5037755;28;20489;-67
2023/04/05 11:04:42;;;;;;;10.98;6.13;;;;;;;7.42;48.56;102138.13;5052297;28;20512;-66
2023/04/05 11:07:14;;;;;;;15.10;6.88;;;;;;;7.50;49.48;102134.31;5052085;28;20053;-67
2023/04/05 11:10:00;;;;;;;11.02;5.53;;;;;;;7.63;48.08;102139.72;5039213;28;20061;-67
2023/04/05 11:12:52;;;;;;;13.15;6.40;;;;;;;7.67;47.11;102140.09;5044516;28;20128;-67
2023/04/05 11:15:32;;;;;;;10.85;6.57;;;;;;;7.74;46.61;102129.22;5052091;28;20037;-67
2023/04/05 11:18:05;;;;;;;11.57;6.70;;;;;;;7.75;46.49;102133.63;5045844;28;20072;-67
2023/04/05 11:20:51;;;;;;;18.27;6.97;;;;;;;7.75;44.53;102128.19;5034156;28;20100;-68
2023/04/05 11:23:22;;;;;;;9.98;6.07;;;;;;;7.71;45.38;102118.81;5046905;28;20037;-68
2023/04/05 11:25:53;;;;;;;10.93;6.38;;;;;;;7.69;45.67;102125.25;5045674;28;20045;-68
2023/04/05 11:28:28;;;;;;;10.45;6.13;;;;;;;7.72;45.65;102123.16;5004500;28;20045;-67
2023/04/05 11:30:57;;;;;;;12.32;6.55;;;;;;;7.76;44.55;102116.28;5012791;28;20132;-68
2023/04/05 11:33:38;;;;;;;14.80;6.60;;;;;;;7.83;45.00;102119.78;5012297;28;20054;-67
2023/04/05 11:36:06;;;;;;;11.43;5.68;;;;;;;7.88;44.66;102117.25;5013373;28;20125;-66
2023/04/05 11:38:34;;;;;;;9.45;5.95;;;;;;;7.89;43.90;102117.03;5017115;28;20048;-66
2023/04/05 11:41:16;;;;;;;10.13;6.25;;;;;;;7.92;43.98;102109.50;5053210;28;20053;-67
2023/04/05 11:43:46;;;;;;;12.68;6.63;;;;;;;7.89;42.80;102114.31;5041944;28;20128;-66
2023/04/05 11:46:14;;;;;;;11.70;6.65;;;;;;;7.89;43.11;102102.63;4996472;28;20046;-66
2023/04/05 11:48:42;;;;;;;11.18;6.43;;;;;;;7.90;44.08;102104.28;5046303;28;20507;-67